createdAt,value
2022-09-12T00:02:03.246Z,8.74
2022-09-12T00:04:30.425Z,8.73
2022-09-12T00:06:57.997Z,8.72
2022-09-12T00:09:26.335Z,8.71
2022-09-12T00:11:53.484Z,8.69
2022-09-12T00:14:20.476Z,8.69
2022-09-12T00:16:47.588Z,8.67
2022-09-12T00:19:16.047Z,8.66
2022-09-12T00:21:45.700Z,8.64
2022-09-12T00:24:12.709Z,8.62
2022-09-12T00:26:39.594Z,8.61
2022-09-12T00:29:06.785Z,8.62
2022-09-12T00:31:34.299Z,8.59
2022-09-12T00:34:02.274Z,8.55
2022-09-12T00:36:29.991Z,8.54
2022-09-12T00:38:57.480Z,8.54
2022-09-12T00:41:43.329Z,8.53
2022-09-12T00:44:10.496Z,8.52
2022-09-12T00:46:44.975Z,8.50
2022-09-12T00:49:33.230Z,8.52
2022-09-12T00:52:09.560Z,8.53
2022-09-12T00:54:39.494Z,8.52
2022-09-12T00:57:08.326Z,8.52
2022-09-12T00:59:46.207Z,8.51
2022-09-12T01:02:13.305Z,8.50
2022-09-12T01:04:41.266Z,8.50
2022-09-12T01:07:08.779Z,8.51
2022-09-12T01:09:36.731Z,8.51
2022-09-12T01:12:04.217Z,8.52
2022-09-12T01:14:31.723Z,8.52
2022-09-12T01:16:58.615Z,8.48
2022-09-12T01:19:25.465Z,8.45
2022-09-12T01:21:55.591Z,8.41
2022-09-12T01:24:25.405Z,8.37
2022-09-12T01:27:24.815Z,8.26
2022-09-12T01:30:05.303Z,8.11
2022-09-12T01:32:51.465Z,8.02
2022-09-12T01:35:24.552Z,7.96
2022-09-12T01:38:20.915Z,7.97
2022-09-12T01:40:57.230Z,8.01
2022-09-12T01:43:25.627Z,8.02
2022-09-12T01:45:55.763Z,8.00
2022-09-12T01:48:31.552Z,7.96
2022-09-12T01:50:58.668Z,7.96
2022-09-12T01:53:37.479Z,7.94
2022-09-12T01:56:08.571Z,7.90
2022-09-12T01:58:42.118Z,7.89
2022-09-12T02:01:33.622Z,7.84
2022-09-12T02:04:08.927Z,7.76
2022-09-12T02:06:44.404Z,7.71
2022-09-12T02:09:16.698Z,7.68
2022-09-12T02:11:44.878Z,7.67
2022-09-12T02:14:23.412Z,7.60
2022-09-12T02:17:07.585Z,7.58
2022-09-12T02:19:37.338Z,7.58
2022-09-12T02:22:04.982Z,7.56
2022-09-12T02:24:40.354Z,7.54
2022-09-12T02:27:11.571Z,7.56
2022-09-12T02:29:38.606Z,7.56
2022-09-12T02:32:11.907Z,7.58
2022-09-12T02:34:49.573Z,7.59
2022-09-12T02:37:26.043Z,7.60
2022-09-12T02:39:57.246Z,7.61
2022-09-12T02:42:24.557Z,7.65
2022-09-12T02:44:52.895Z,7.67
2022-09-12T02:47:24.171Z,7.67
2022-09-12T02:49:51.658Z,7.64
2022-09-12T02:52:18.851Z,7.61
2022-09-12T02:54:45.989Z,7.62
2022-09-12T02:57:23.050Z,7.61
2022-09-12T02:59:53.575Z,7.62
2022-09-12T03:02:23.639Z,7.56
2022-09-12T03:05:05.937Z,7.55
2022-09-12T03:07:33.007Z,7.52
2022-09-12T03:10:18.822Z,7.50
2022-09-12T03:12:45.704Z,7.50
2022-09-12T03:15:17.133Z,7.51
2022-09-12T03:17:56.271Z,7.51
2022-09-12T03:20:32.582Z,7.46
2022-09-12T03:23:04.386Z,7.48
2022-09-12T03:25:34.490Z,7.49
2022-09-12T03:28:08.228Z,7.43
2022-09-12T03:30:44.787Z,7.47
2022-09-12T03:33:12.631Z,7.47
2022-09-12T03:35:40.625Z,7.47
2022-09-12T03:38:08.266Z,7.42
2022-09-12T03:40:35.945Z,7.46
2022-09-12T03:43:03.051Z,7.52
2022-09-12T03:45:30.025Z,7.46
2022-09-12T03:47:57.004Z,7.47
2022-09-12T03:50:24.090Z,7.43
2022-09-12T03:52:51.126Z,7.43
2022-09-12T03:55:18.096Z,7.45
2022-09-12T03:57:46.121Z,7.49
2022-09-12T04:00:17.644Z,7.49
2022-09-12T04:02:48.793Z,7.47
2022-09-12T04:05:15.741Z,7.48
2022-09-12T04:07:42.855Z,7.48
2022-09-12T04:10:10.160Z,7.51
2022-09-12T04:12:37.329Z,7.54
2022-09-12T04:15:04.311Z,7.58
2022-09-12T04:17:31.713Z,7.61
2022-09-12T04:19:58.532Z,7.67
2022-09-12T04:22:25.429Z,7.69
2022-09-12T04:24:52.263Z,7.71
2022-09-12T04:27:19.213Z,7.77
2022-09-12T04:29:46.050Z,7.86
2022-09-12T04:32:14.077Z,7.91
2022-09-12T04:34:40.986Z,8.01
2022-09-12T04:37:07.887Z,8.04
2022-09-12T04:39:34.731Z,8.12
2022-09-12T04:42:03.303Z,8.10
2022-09-12T04:44:30.206Z,8.13
2022-09-12T04:46:57.353Z,8.14
2022-09-12T04:49:24.312Z,8.11
2022-09-12T04:51:53.168Z,8.17
2022-09-12T04:54:20.755Z,8.17
2022-09-12T04:56:49.032Z,8.20
2022-09-12T04:59:17.371Z,8.28
2022-09-12T05:01:44.377Z,8.32
2022-09-12T05:04:13.055Z,8.35
2022-09-12T05:06:41.236Z,8.36
2022-09-12T05:09:11.382Z,8.37
2022-09-12T05:12:03.192Z,8.39
2022-09-12T05:14:27.727Z,8.48
2022-09-12T05:16:56.525Z,8.46
2022-09-12T05:19:23.675Z,8.50
2022-09-12T05:21:50.531Z,8.56
2022-09-12T05:24:18.671Z,8.63
2022-09-12T05:26:45.566Z,8.61
2022-09-12T05:29:13.344Z,8.53
2022-09-12T05:31:40.439Z,8.47
2022-09-12T05:34:10.221Z,8.53
2022-09-12T05:36:37.531Z,8.69
2022-09-12T05:39:04.786Z,8.81
2022-09-12T05:41:33.666Z,8.86
2022-09-12T05:44:02.345Z,9.03
2022-09-12T05:46:30.517Z,9.07
2022-09-12T05:48:58.515Z,9.18
2022-09-12T05:51:26.990Z,9.17
2022-09-12T05:53:58.003Z,9.25
2022-09-12T05:56:26.045Z,9.33
2022-09-12T05:59:13.596Z,9.37
2022-09-12T06:01:41.044Z,9.40
2022-09-12T06:04:08.297Z,9.40
2022-09-12T06:06:45.411Z,9.54
2022-09-12T06:09:39.569Z,9.71
2022-09-12T06:12:09.005Z,9.85
2022-09-12T06:14:36.410Z,10.11
2022-09-12T06:17:07.522Z,10.19
2022-09-12T06:19:34.562Z,10.57
2022-09-12T06:22:01.977Z,10.83
2022-09-12T06:24:28.908Z,11.09
2022-09-12T06:26:56.045Z,11.12
2022-09-12T06:29:23.103Z,11.03
2022-09-12T06:31:50.345Z,10.83
2022-09-12T06:34:20.830Z,10.81
2022-09-12T06:36:48.842Z,10.62
2022-09-12T06:39:19.827Z,10.71
2022-09-12T06:41:47.410Z,10.85
2022-09-12T06:44:19.566Z,11.00
2022-09-12T06:46:46.826Z,11.15
2022-09-12T06:49:13.799Z,11.34
2022-09-12T06:51:42.309Z,11.39
2022-09-12T06:54:11.022Z,11.46
2022-09-12T06:56:38.163Z,11.36
2022-09-12T06:59:05.038Z,11.28
2022-09-12T07:01:33.102Z,11.22
2022-09-12T07:04:00.883Z,11.18
2022-09-12T07:06:32.098Z,11.03
2022-09-12T07:09:00.219Z,11.06
2022-09-12T07:11:28.372Z,10.98
2022-09-12T07:13:59.077Z,11.22
2022-09-12T07:16:26.150Z,11.32
2022-09-12T07:18:54.768Z,11.36
2022-09-12T07:21:22.096Z,11.39
2022-09-12T07:23:49.487Z,11.30
2022-09-12T07:26:16.624Z,11.36
2022-09-12T07:28:43.879Z,11.36
2022-09-12T07:31:15.246Z,11.50
2022-09-12T07:33:42.952Z,11.53
2022-09-12T07:36:16.978Z,11.58
2022-09-12T07:38:48.208Z,11.47
2022-09-12T07:41:15.182Z,11.57
2022-09-12T07:43:42.281Z,11.79
2022-09-12T07:46:09.801Z,11.88
2022-09-12T07:48:37.557Z,11.65
2022-09-12T07:51:05.954Z,11.56
2022-09-12T07:53:34.368Z,11.54
2022-09-12T07:56:03.252Z,11.67
2022-09-12T07:58:30.950Z,11.59
2022-09-12T08:01:02.674Z,11.69
2022-09-12T08:03:29.768Z,11.58
2022-09-12T08:06:03.230Z,11.52
2022-09-12T08:08:30.512Z,11.70
2022-09-12T08:10:59.958Z,11.57
2022-09-12T08:13:30.057Z,11.25
2022-09-12T08:16:00.159Z,11.45
2022-09-12T08:18:35.553Z,11.35
2022-09-12T08:21:04.167Z,11.40
2022-09-12T08:23:31.977Z,11.34
2022-09-12T08:26:06.070Z,11.44
2022-09-12T08:28:34.537Z,11.50
2022-09-12T08:31:05.747Z,11.77
2022-09-12T08:33:35.149Z,11.73
2022-09-12T08:36:05.787Z,11.68
2022-09-12T08:38:33.193Z,11.69
2022-09-12T08:41:06.096Z,11.96
2022-09-12T08:43:39.044Z,11.86
2022-09-12T08:46:18.606Z,12.18
2022-09-12T08:48:46.886Z,12.63
2022-09-12T08:51:16.141Z,12.67
2022-09-12T08:53:44.207Z,12.42
2022-09-12T08:56:12.085Z,12.42
2022-09-12T08:58:43.443Z,12.54
2022-09-12T09:01:26.236Z,12.68
2022-09-12T09:04:02.277Z,12.65
2022-09-12T09:06:35.334Z,12.69
2022-09-12T09:09:29.516Z,12.65
2022-09-12T09:12:15.238Z,12.55
2022-09-12T09:15:01.631Z,12.49
2022-09-12T09:17:50.117Z,12.36
2022-09-12T09:20:17.151Z,12.23
2022-09-12T09:22:47.894Z,12.57
2022-09-12T09:25:23.046Z,12.73
2022-09-12T09:27:50.116Z,12.79
2022-09-12T09:30:18.731Z,12.46
2022-09-12T09:32:49.444Z,12.29
2022-09-12T09:35:28.386Z,12.55
2022-09-12T09:38:08.916Z,12.69
2022-09-12T09:40:43.468Z,12.88
2022-09-12T09:43:24.425Z,13.13
2022-09-12T09:45:55.160Z,13.35
2022-09-12T09:48:32.734Z,13.18
2022-09-12T09:51:02.007Z,12.99
2022-09-12T09:53:46.428Z,12.91
2022-09-12T09:56:23.159Z,12.97
2022-09-12T09:58:50.547Z,13.04
2022-09-12T10:01:18.521Z,13.09
2022-09-12T10:03:50.714Z,13.05
2022-09-12T10:06:20.957Z,13.06
2022-09-12T10:08:50.022Z,13.46
2022-09-12T10:11:16.957Z,13.68
2022-09-12T10:13:53.466Z,13.88
2022-09-12T10:16:22.681Z,14.06
2022-09-12T10:18:53.125Z,13.76
2022-09-12T10:21:25.683Z,13.42
2022-09-12T10:24:13.259Z,13.42
2022-09-12T10:26:40.808Z,13.13
2022-09-12T10:29:13.717Z,13.20
2022-09-12T10:32:00.184Z,13.13
2022-09-12T10:34:28.197Z,13.27
2022-09-12T10:36:59.350Z,13.37
2022-09-12T10:39:27.074Z,13.30
2022-09-12T10:41:54.066Z,13.18
2022-09-12T10:44:29.665Z,13.45
2022-09-12T10:46:57.977Z,13.66
2022-09-12T10:49:26.765Z,13.70
2022-09-12T10:51:54.674Z,14.01
2022-09-12T10:54:23.887Z,13.98
2022-09-12T10:57:21.203Z,13.88
2022-09-12T11:00:17.713Z,14.15
2022-09-12T11:02:48.313Z,14.54
2022-09-12T11:05:22.821Z,14.73
2022-09-12T11:07:55.685Z,14.74
2022-09-12T11:10:38.037Z,14.47
2022-09-12T11:13:42.121Z,14.53
2022-09-12T11:16:23.230Z,14.70
2022-09-12T11:18:53.702Z,14.79
2022-09-12T11:21:26.666Z,14.73
2022-09-12T11:24:12.840Z,14.73
2022-09-12T11:26:58.389Z,14.64
2022-09-12T11:29:25.903Z,14.43
2022-09-12T11:32:05.299Z,14.12
2022-09-12T11:34:36.422Z,13.58
2022-09-12T11:37:18.087Z,13.41
2022-09-12T11:39:46.894Z,13.28
2022-09-12T11:42:22.648Z,13.43
2022-09-12T11:44:55.030Z,13.49
2022-09-12T11:47:23.012Z,13.69
2022-09-12T11:49:51.288Z,13.60
2022-09-12T11:52:25.081Z,13.71
2022-09-12T11:54:58.558Z,13.71
2022-09-12T11:57:25.524Z,13.71
2022-09-12T12:03:52.803Z,14.28
2022-09-12T12:06:22.943Z,13.92
2022-09-12T12:08:50.738Z,13.58
2022-09-12T12:11:34.152Z,13.63
2022-09-12T12:14:06.717Z,13.67
2022-09-12T12:16:37.411Z,13.16
2022-09-12T12:19:28.711Z,13.12
2022-09-12T12:21:55.968Z,13.13
2022-09-12T12:24:24.245Z,13.09
2022-09-12T12:26:55.447Z,13.16
2022-09-12T12:29:22.488Z,13.05
2022-09-12T12:31:59.245Z,13.26
2022-09-12T12:34:29.332Z,13.43
2022-09-12T12:36:56.472Z,13.34
2022-09-12T12:39:43.989Z,13.36
2022-09-12T12:42:31.394Z,13.17
2022-09-12T12:44:59.054Z,13.37
2022-09-12T12:47:29.093Z,13.26
2022-09-12T12:49:58.144Z,13.48
2022-09-12T12:52:25.727Z,13.51
2022-09-12T12:54:55.277Z,13.56
2022-09-12T12:57:22.378Z,13.52
2022-09-12T12:59:52.218Z,13.35
2022-09-12T13:02:41.277Z,13.28
2022-09-12T13:05:20.086Z,13.25
2022-09-12T13:07:48.356Z,13.12
2022-09-12T13:10:23.760Z,13.05
2022-09-12T13:12:51.508Z,13.25
2022-09-12T13:15:36.877Z,13.24
2022-09-12T13:18:12.115Z,13.20
2022-09-12T13:20:51.777Z,13.02
2022-09-12T13:23:26.516Z,12.98
2022-09-12T13:25:55.385Z,12.91
2022-09-12T13:28:22.297Z,12.88
2022-09-12T13:31:16.169Z,12.74
2022-09-12T13:33:48.809Z,12.59
2022-09-12T13:36:21.714Z,12.46
2022-09-12T13:38:55.220Z,12.68
2022-09-12T13:41:25.510Z,12.71
2022-09-12T13:43:52.766Z,12.75
2022-09-12T13:46:26.914Z,12.88
2022-09-12T13:48:54.074Z,12.75
2022-09-12T13:51:26.911Z,12.75
2022-09-12T13:53:58.472Z,12.57
2022-09-12T13:56:25.452Z,12.54
2022-09-12T13:58:54.234Z,12.45
2022-09-12T14:01:21.505Z,12.37
2022-09-12T14:04:08.756Z,12.33
2022-09-12T14:06:57.113Z,12.32
2022-09-12T14:09:26.124Z,12.35
2022-09-12T14:11:53.189Z,12.34
2022-09-12T14:14:27.930Z,12.36
2022-09-12T14:16:54.945Z,12.28
2022-09-12T14:19:24.796Z,12.17
2022-09-12T14:21:55.651Z,12.16
2022-09-12T14:24:24.606Z,12.12
2022-09-12T14:26:56.905Z,12.11
2022-09-12T14:29:25.389Z,12.08
2022-09-12T14:32:05.302Z,12.03
2022-09-12T14:34:32.424Z,11.91
2022-09-12T14:36:59.649Z,11.92
2022-09-12T14:39:29.844Z,11.85
2022-09-12T14:42:03.624Z,11.90
2022-09-12T14:44:31.338Z,11.83
2022-09-12T14:47:01.789Z,11.74
2022-09-12T14:49:36.820Z,11.72
2022-09-12T14:52:08.470Z,11.72
2022-09-12T14:54:37.500Z,11.66
2022-09-12T14:57:06.707Z,11.64
2022-09-12T14:59:33.524Z,11.54
2022-09-12T15:02:19.364Z,11.46
2022-09-12T15:04:55.720Z,11.43
2022-09-12T15:07:31.782Z,11.37
2022-09-12T15:10:28.490Z,11.29
2022-09-12T15:13:14.626Z,11.25
2022-09-12T15:15:43.301Z,11.18
2022-09-12T15:18:10.250Z,11.16
2022-09-12T15:20:38.971Z,11.07
2022-09-12T15:23:17.766Z,11.05
2022-09-12T15:25:45.140Z,10.98
2022-09-12T15:28:20.825Z,10.90
2022-09-12T15:30:50.631Z,10.84
2022-09-12T15:33:23.002Z,10.79
2022-09-12T15:35:50.534Z,10.74
2022-09-12T15:38:17.398Z,10.72
2022-09-12T15:40:45.938Z,10.71
2022-09-12T15:43:18.344Z,10.67
2022-09-12T15:45:46.259Z,10.66
2022-09-12T15:48:14.068Z,10.60
2022-09-12T15:50:43.896Z,10.56
2022-09-12T15:53:44.152Z,10.48
2022-09-12T15:56:14.978Z,10.41
2022-09-12T15:58:57.128Z,10.34
2022-09-12T16:01:25.671Z,10.31
2022-09-12T16:03:52.652Z,10.24
2022-09-12T16:06:19.498Z,10.22
2022-09-12T16:08:46.367Z,10.23
2022-09-12T16:11:21.319Z,10.22
2022-09-12T16:13:48.844Z,10.20
2022-09-12T16:16:15.846Z,10.17
2022-09-12T16:18:42.870Z,10.15
2022-09-12T16:21:20.304Z,10.15
2022-09-12T16:23:51.015Z,10.16
2022-09-12T16:26:18.340Z,10.17
2022-09-12T16:28:50.520Z,10.17
2022-09-12T16:31:18.913Z,10.12
2022-09-12T16:33:49.730Z,10.15
2022-09-12T16:36:19.032Z,10.12
2022-09-12T16:38:53.265Z,10.17
2022-09-12T16:41:25.534Z,10.19
2022-09-12T16:43:56.460Z,10.21
2022-09-12T16:46:43.519Z,10.22
2022-09-12T16:49:13.562Z,10.27
2022-09-12T16:51:50.417Z,10.30
2022-09-12T16:54:17.947Z,10.30
2022-09-12T16:57:04.767Z,10.31
2022-09-12T16:59:34.958Z,10.30
2022-09-12T17:02:02.445Z,10.26
2022-09-12T17:04:32.169Z,10.28
2022-09-12T17:07:01.407Z,10.28
2022-09-12T17:09:29.483Z,10.31
2022-09-12T17:11:58.992Z,10.32
2022-09-12T17:14:30.584Z,10.32
2022-09-12T17:16:57.690Z,10.30
2022-09-12T17:19:26.826Z,10.31
2022-09-12T17:21:54.138Z,10.29
2022-09-12T17:24:28.682Z,10.33
2022-09-12T17:26:58.328Z,10.30
2022-09-12T17:29:28.748Z,10.25
2022-09-12T17:31:56.300Z,10.27
2022-09-12T17:34:23.594Z,10.26
2022-09-12T17:36:52.147Z,10.23
2022-09-12T17:39:25.696Z,10.18
2022-09-12T17:41:54.766Z,10.17
2022-09-12T17:44:24.293Z,10.16
2022-09-12T17:47:00.376Z,10.11
2022-09-12T17:49:27.514Z,10.10
2022-09-12T17:51:59.537Z,10.10
2022-09-12T17:54:27.814Z,10.03
2022-09-12T17:56:56.342Z,10.04
2022-09-12T17:59:32.307Z,10.04
2022-09-12T18:02:14.568Z,10.02
2022-09-12T18:04:42.577Z,9.96
2022-09-12T18:07:18.824Z,9.97
2022-09-12T18:09:50.443Z,9.96
2022-09-12T18:12:19.121Z,9.93
2022-09-12T18:14:48.168Z,9.91
2022-09-12T18:17:15.468Z,9.94
2022-09-12T18:19:42.536Z,9.92
2022-09-12T18:22:09.677Z,9.85
2022-09-12T18:24:37.458Z,9.89
2022-09-12T18:30:43.312Z,9.89
2022-09-12T18:33:12.110Z,9.88
2022-09-12T18:35:38.998Z,9.91
2022-09-12T18:38:11.535Z,9.93
2022-09-12T18:40:44.742Z,9.93
2022-09-12T18:43:15.185Z,9.92
2022-09-12T18:45:42.581Z,9.94
2022-09-12T18:48:12.258Z,9.90
2022-09-12T18:50:49.210Z,9.92
2022-09-12T18:53:20.167Z,9.91
2022-09-12T18:55:47.835Z,9.92
2022-09-12T18:58:15.531Z,9.93
2022-09-12T19:00:44.927Z,9.91
2022-09-12T19:03:12.458Z,9.91
2022-09-12T19:05:40.117Z,9.92
2022-09-12T19:08:08.892Z,9.89
2022-09-12T19:10:37.092Z,9.90
2022-09-12T19:13:04.562Z,9.90
2022-09-12T19:15:33.061Z,9.93
2022-09-12T19:18:00.567Z,9.89
2022-09-12T19:20:27.360Z,9.88
2022-09-12T19:22:54.273Z,9.88
2022-09-12T19:25:21.217Z,9.82
2022-09-12T19:27:48.197Z,9.81
2022-09-12T19:30:15.190Z,9.80
2022-09-12T19:32:42.056Z,9.78
2022-09-12T19:35:27.855Z,9.75
2022-09-12T19:37:57.074Z,9.73
2022-09-12T19:40:24.039Z,9.70
2022-09-12T19:42:51.173Z,9.70
2022-09-12T19:45:17.977Z,9.69
2022-09-12T19:47:45.147Z,9.66
2022-09-12T19:50:13.204Z,9.63
2022-09-12T19:52:40.369Z,9.64
2022-09-12T19:55:07.606Z,9.60
2022-09-12T19:57:34.582Z,9.58
2022-09-12T20:00:01.516Z,9.57
2022-09-12T20:02:30.283Z,9.54
2022-09-12T20:04:57.351Z,9.56
2022-09-12T20:07:24.260Z,9.53
2022-09-12T20:09:51.140Z,9.52
2022-09-12T20:12:18.995Z,9.52
2022-09-12T20:14:45.843Z,9.53
2022-09-12T20:17:12.922Z,9.53
2022-09-12T20:19:39.939Z,9.53
2022-09-12T20:22:06.832Z,9.54
2022-09-12T20:24:35.862Z,9.54
2022-09-12T20:27:04.170Z,9.55
2022-09-12T20:29:31.915Z,9.53
2022-09-12T20:31:58.975Z,9.52
2022-09-12T20:34:25.999Z,9.52
2022-09-12T20:36:52.862Z,9.53
2022-09-12T20:39:21.041Z,9.51
2022-09-12T20:41:48.544Z,9.50
2022-09-12T20:44:15.432Z,9.50
2022-09-12T20:46:42.919Z,9.48
2022-09-12T20:49:10.043Z,9.49
2022-09-12T20:51:38.070Z,9.48
2022-09-12T20:54:06.150Z,9.42
2022-09-12T20:56:35.056Z,9.40
2022-09-12T20:59:02.427Z,9.44
2022-09-12T21:01:30.317Z,9.44
2022-09-12T21:03:57.270Z,9.39
2022-09-12T21:06:24.598Z,9.37
2022-09-12T21:08:51.773Z,9.37
2022-09-12T21:11:19.281Z,9.35
2022-09-12T21:13:46.306Z,9.33
2022-09-12T21:16:17.501Z,9.33
2022-09-12T21:18:44.964Z,9.30
2022-09-12T21:21:12.851Z,9.31
2022-09-12T21:23:40.311Z,9.29
2022-09-12T21:26:07.789Z,9.28
2022-09-12T21:28:34.858Z,9.25
2022-09-12T21:31:02.056Z,9.26
2022-09-12T21:33:28.975Z,9.29
2022-09-12T21:36:00.779Z,9.28
2022-09-12T21:38:27.607Z,9.27
2022-09-12T21:41:02.619Z,9.26
2022-09-12T21:43:29.568Z,9.26
2022-09-12T21:46:00.282Z,9.25
2022-09-12T21:48:27.825Z,9.27
2022-09-12T21:50:54.829Z,9.26
2022-09-12T21:53:21.903Z,9.24
2022-09-12T21:55:48.767Z,9.25
2022-09-12T21:58:15.744Z,9.25
2022-09-12T22:00:46.351Z,9.23
2022-09-12T22:03:13.317Z,9.20
2022-09-12T22:05:40.421Z,9.22
2022-09-12T22:08:07.740Z,9.23
2022-09-12T22:10:34.675Z,9.23
2022-09-12T22:13:01.588Z,9.22
2022-09-12T22:15:44.099Z,9.20
2022-09-12T22:18:11.599Z,9.20
2022-09-12T22:20:38.731Z,9.17
2022-09-12T22:23:25.217Z,9.17
2022-09-12T22:25:55.947Z,9.16
2022-09-12T22:28:23.315Z,9.13
2022-09-12T22:30:52.668Z,9.13
2022-09-12T22:33:19.493Z,9.14
2022-09-12T22:35:46.384Z,9.12
2022-09-12T22:38:13.437Z,9.12
2022-09-12T22:40:40.343Z,9.12
2022-09-12T22:43:07.264Z,9.11
2022-09-12T22:45:34.071Z,9.09
2022-09-12T22:48:03.311Z,9.09
2022-09-12T22:50:33.748Z,9.08
2022-09-12T22:53:00.623Z,9.10
2022-09-12T22:55:28.130Z,9.07
2022-09-12T22:57:56.481Z,9.04
2022-09-12T23:00:23.837Z,9.04
2022-09-12T23:02:50.883Z,9.00
2022-09-12T23:05:17.995Z,9.02
2022-09-12T23:07:44.852Z,9.06
2022-09-12T23:10:12.032Z,9.02
2022-09-12T23:12:38.982Z,9.01
2022-09-12T23:15:06.068Z,9.02
2022-09-12T23:17:35.019Z,8.98
2022-09-12T23:20:02.167Z,8.96
2022-09-12T23:22:29.977Z,9.00
2022-09-12T23:24:56.901Z,9.01
2022-09-12T23:27:27.308Z,8.99
2022-09-12T23:29:54.186Z,9.00
2022-09-12T23:32:21.431Z,8.98
2022-09-12T23:34:48.587Z,8.99
2022-09-12T23:37:15.864Z,8.98
2022-09-12T23:39:43.344Z,8.98
2022-09-12T23:42:10.243Z,8.92
2022-09-12T23:44:37.094Z,8.88
2022-09-12T23:47:04.066Z,8.86
2022-09-12T23:49:30.945Z,8.86
2022-09-12T23:51:57.757Z,8.82
2022-09-12T23:54:25.352Z,8.80
2022-09-12T23:56:52.254Z,8.77
2022-09-12T23:59:19.100Z,8.74
